createdAt,value
2023-01-03T00:00:45.748Z,9.73
2023-01-03T00:05:48.096Z,9.80
2023-01-03T00:10:49.417Z,9.84
2023-01-03T00:15:50.732Z,9.76
2023-01-03T00:20:52.061Z,9.62
2023-01-03T00:25:53.366Z,9.51
2023-01-03T00:30:54.690Z,9.41
2023-01-03T00:35:56.037Z,9.35
2023-01-03T00:41:04.302Z,9.30
2023-01-03T00:46:06.303Z,9.25
2023-01-03T00:51:12.171Z,9.21
2023-01-03T00:56:15.379Z,9.16
2023-01-03T01:01:22.651Z,9.09
2023-01-03T01:06:25.177Z,9.04
2023-01-03T01:11:27.533Z,8.97
2023-01-03T01:16:30.912Z,8.93
2023-01-03T01:21:32.790Z,8.86
2023-01-03T01:26:34.159Z,8.81
2023-01-03T01:31:35.569Z,8.76
2023-01-03T01:36:37.776Z,8.74
2023-01-03T01:41:58.393Z,8.77
2023-01-03T01:46:59.769Z,8.76
2023-01-03T01:52:01.299Z,8.72
2023-01-03T01:57:03.273Z,8.69
2023-01-03T02:02:05.583Z,8.64
2023-01-03T02:07:07.164Z,8.59
2023-01-03T02:12:40.335Z,8.56
2023-01-03T02:17:44.503Z,8.51
2023-01-03T02:22:48.908Z,8.50
2023-01-03T02:27:56.473Z,8.53
2023-01-03T02:33:05.495Z,8.62
2023-01-03T02:38:09.862Z,8.72
2023-01-03T02:43:21.299Z,8.83
2023-01-03T02:48:22.763Z,8.87
2023-01-03T02:53:30.552Z,8.91
2023-01-03T02:58:34.981Z,8.93
2023-01-03T03:03:37.536Z,8.98
2023-01-03T03:08:39.125Z,9.02
2023-01-03T03:13:43.394Z,9.03
2023-01-03T03:18:47.938Z,9.03
2023-01-03T03:24:08.696Z,9.04
2023-01-03T03:29:12.812Z,8.94
2023-01-03T03:34:23.509Z,8.92
2023-01-03T03:39:44.230Z,8.92
2023-01-03T03:45:02.304Z,8.94
2023-01-03T03:50:11.744Z,8.91
2023-01-03T03:55:16.225Z,8.84
2023-01-03T04:00:21.384Z,8.79
2023-01-03T04:05:24.805Z,8.84
2023-01-03T04:10:26.322Z,8.89
2023-01-03T04:15:28.000Z,8.89
2023-01-03T04:20:29.910Z,8.88
2023-01-03T04:25:31.249Z,8.92
2023-01-03T04:30:32.600Z,8.96
2023-01-03T04:35:34.380Z,8.99
2023-01-03T04:40:36.078Z,9.01
2023-01-03T04:45:37.688Z,9.03
2023-01-03T04:50:39.092Z,9.03
2023-01-03T04:55:45.543Z,9.04
2023-01-03T05:00:47.062Z,9.06
2023-01-03T05:05:50.365Z,9.09
2023-01-03T05:10:53.411Z,9.09
2023-01-03T05:15:54.743Z,9.08
2023-01-03T05:21:14.961Z,9.09
2023-01-03T05:26:18.452Z,9.07
2023-01-03T05:31:20.142Z,9.04
2023-01-03T05:36:21.517Z,9.03
2023-01-03T05:41:41.703Z,9.05
2023-01-03T05:46:43.132Z,9.11
2023-01-03T05:51:44.443Z,9.12
2023-01-03T05:56:45.903Z,9.15
2023-01-03T06:01:47.249Z,9.21
2023-01-03T06:06:48.793Z,9.24
2023-01-03T06:11:50.178Z,9.28
2023-01-03T06:17:10.238Z,9.31
2023-01-03T06:22:11.623Z,9.30
2023-01-03T06:27:13.854Z,9.32
2023-01-03T06:32:15.175Z,9.31
2023-01-03T06:37:16.564Z,9.31
2023-01-03T06:42:36.795Z,9.25
2023-01-03T06:47:56.664Z,9.21
2023-01-03T06:53:13.004Z,9.17
2023-01-03T06:58:14.348Z,9.16
2023-01-03T07:03:15.675Z,9.11
2023-01-03T07:08:17.061Z,9.05
2023-01-03T07:13:37.139Z,9.01
2023-01-03T07:18:38.527Z,8.90
2023-01-03T07:23:39.931Z,8.74
2023-01-03T07:28:41.237Z,8.59
2023-01-03T07:33:42.554Z,8.49
2023-01-03T07:38:44.762Z,8.38
2023-01-03T07:43:47.547Z,8.31
2023-01-03T07:48:50.042Z,8.24
2023-01-03T07:53:53.078Z,8.21
2023-01-03T07:58:54.529Z,8.18
2023-01-03T08:03:55.946Z,8.16
2023-01-03T08:09:16.146Z,8.15
2023-01-03T08:14:23.487Z,8.13
2023-01-03T08:19:26.822Z,8.12
2023-01-03T08:24:28.145Z,8.16
2023-01-03T08:29:29.549Z,8.15
2023-01-03T08:34:32.664Z,8.14
2023-01-03T08:39:37.713Z,8.15
2023-01-03T08:44:39.445Z,8.18
2023-01-03T08:49:40.897Z,8.22
2023-01-03T08:54:43.834Z,8.28
2023-01-03T08:59:45.194Z,8.36
2023-01-03T09:04:46.682Z,8.41
2023-01-03T09:09:48.007Z,8.44
2023-01-03T09:14:49.336Z,8.46
2023-01-03T09:19:50.700Z,8.45
2023-01-03T09:24:52.048Z,8.50
2023-01-03T09:29:53.347Z,8.54
2023-01-03T09:34:54.674Z,8.59
2023-01-03T09:39:56.018Z,8.66
2023-01-03T09:44:58.726Z,8.71
2023-01-03T09:55:46.675Z,8.81
2023-01-03T10:01:09.064Z,8.81
2023-01-03T10:06:16.722Z,8.76
2023-01-03T10:11:39.382Z,8.78
2023-01-03T10:17:01.170Z,8.85
2023-01-03T10:22:12.402Z,8.91
2023-01-03T10:27:19.288Z,8.98
2023-01-03T10:32:26.354Z,9.03
2023-01-03T10:37:27.784Z,9.06
2023-01-03T10:42:30.808Z,9.10
2023-01-03T10:47:32.120Z,9.26
2023-01-03T10:52:40.697Z,9.29
2023-01-03T10:57:44.253Z,9.29
2023-01-03T11:02:46.280Z,9.36
2023-01-03T11:07:53.796Z,9.45
2023-01-03T11:12:55.246Z,9.48
2023-01-03T11:17:56.577Z,9.58
2023-01-03T11:23:02.936Z,9.71
2023-01-03T11:28:05.368Z,10.01
2023-01-03T11:33:14.237Z,10.19
2023-01-03T11:38:27.889Z,10.20
2023-01-03T11:43:38.685Z,10.16
2023-01-03T11:48:52.889Z,10.16
2023-01-03T11:54:05.105Z,10.23
2023-01-03T11:59:09.523Z,10.18
2023-01-03T12:04:17.614Z,10.20
2023-01-03T12:09:26.088Z,10.18
2023-01-03T12:14:33.484Z,10.14
2023-01-03T12:19:37.902Z,10.08
2023-01-03T12:24:43.506Z,9.91
2023-01-03T12:29:47.906Z,9.64
2023-01-03T12:35:01.505Z,9.48
2023-01-03T12:40:05.520Z,9.38
2023-01-03T12:45:20.771Z,9.28
2023-01-03T12:50:28.409Z,9.22
2023-01-03T12:55:38.881Z,9.17
2023-01-03T13:00:47.486Z,9.07
2023-01-03T13:05:50.976Z,9.04
2023-01-03T13:10:54.547Z,8.92
2023-01-03T13:15:56.169Z,9.04
2023-01-03T13:20:57.668Z,9.14
2023-01-03T13:26:19.289Z,9.22
2023-01-03T13:31:21.362Z,9.38
2023-01-03T13:36:23.809Z,10.11
2023-01-03T13:41:38.341Z,10.53
2023-01-03T13:46:42.062Z,10.18
2023-01-03T13:51:43.433Z,9.93
2023-01-03T13:56:44.768Z,9.78
2023-01-03T14:01:46.288Z,9.70
2023-01-03T14:07:10.832Z,9.65
2023-01-03T14:12:30.850Z,9.63
2023-01-03T14:17:33.845Z,9.67
2023-01-03T14:22:44.127Z,9.65
2023-01-03T14:27:45.578Z,9.57
2023-01-03T14:32:46.992Z,9.41
2023-01-03T14:37:48.381Z,9.25
2023-01-03T14:42:49.698Z,9.11
2023-01-03T14:47:55.284Z,9.00
2023-01-03T14:52:58.038Z,8.86
2023-01-03T14:58:01.920Z,8.76
2023-01-03T15:03:03.910Z,8.69
2023-01-03T15:08:14.650Z,8.59
2023-01-03T15:13:21.998Z,8.48
2023-01-03T15:18:24.786Z,8.39
2023-01-03T15:23:29.109Z,8.33
2023-01-03T15:28:31.895Z,8.28
2023-01-03T15:33:33.511Z,8.28
2023-01-03T15:38:36.989Z,8.32
2023-01-03T15:43:38.776Z,8.33
2023-01-03T15:48:42.459Z,8.33
2023-01-03T15:53:44.956Z,8.33
2023-01-03T15:58:48.124Z,8.33
2023-01-03T16:03:50.490Z,8.34
2023-01-03T16:08:52.794Z,8.35
2023-01-03T16:13:55.431Z,8.32
2023-01-03T16:18:57.352Z,8.31
2023-01-03T16:23:59.007Z,8.32
2023-01-03T16:29:00.403Z,8.32
2023-01-03T16:34:03.895Z,8.30
2023-01-03T16:39:06.444Z,8.34
2023-01-03T16:44:07.949Z,8.34
2023-01-03T16:49:10.180Z,8.21
2023-01-03T16:54:12.725Z,8.02
2023-01-03T16:59:15.124Z,7.80
2023-01-03T17:04:16.708Z,7.58
2023-01-03T17:09:22.289Z,7.46
2023-01-03T17:14:23.630Z,7.33
2023-01-03T17:20:02.844Z,7.23
2023-01-03T17:24:48.229Z,7.11
2023-01-03T17:29:51.526Z,6.98
2023-01-03T17:34:52.869Z,6.85
2023-01-03T17:39:55.933Z,6.73
2023-01-03T17:45:15.900Z,6.64
2023-01-03T17:50:17.266Z,6.69
2023-01-03T17:55:18.669Z,6.79
2023-01-03T18:00:21.578Z,6.88
2023-01-03T18:05:27.732Z,6.97
2023-01-03T18:10:41.819Z,7.03
2023-01-03T18:15:46.894Z,7.07
2023-01-03T18:20:48.257Z,7.06
2023-01-03T18:25:49.625Z,6.99
2023-01-03T18:30:51.273Z,6.91
2023-01-03T18:35:53.113Z,6.87
2023-01-03T18:41:02.204Z,6.88
2023-01-03T18:46:06.580Z,6.84
2023-01-03T18:51:12.901Z,6.76
2023-01-03T18:56:25.185Z,6.66
2023-01-03T19:01:27.369Z,6.63
2023-01-03T19:06:33.458Z,6.62
2023-01-03T19:11:36.474Z,6.60
2023-01-03T19:16:38.374Z,6.60
2023-01-03T19:21:40.963Z,6.57
2023-01-03T19:26:45.279Z,6.54
2023-01-03T19:31:47.412Z,6.50
2023-01-03T19:36:49.396Z,6.46
2023-01-03T19:42:11.442Z,6.42
2023-01-03T19:47:14.443Z,6.45
2023-01-03T19:52:16.610Z,6.59
2023-01-03T19:57:22.926Z,6.74
2023-01-03T20:02:35.651Z,6.88
2023-01-03T20:07:37.160Z,7.00
2023-01-03T20:12:38.586Z,7.10
2023-01-03T20:17:40.068Z,7.18
2023-01-03T20:28:04.890Z,7.33
2023-01-03T20:33:06.225Z,7.37
2023-01-03T20:38:10.332Z,7.44
2023-01-03T20:43:13.069Z,7.53
2023-01-03T20:48:20.826Z,7.63
2023-01-03T20:53:25.510Z,7.73
2023-01-03T20:58:27.503Z,7.80
2023-01-03T21:03:28.890Z,7.83
2023-01-03T21:08:48.991Z,7.84
2023-01-03T21:13:50.485Z,7.78
2023-01-03T21:18:51.798Z,7.73
2023-01-03T21:23:54.117Z,7.64
2023-01-03T21:28:55.593Z,7.49
2023-01-03T21:33:56.898Z,7.27
2023-01-03T21:38:58.926Z,7.05
2023-01-03T21:44:03.199Z,6.89
2023-01-03T21:49:04.535Z,6.64
2023-01-03T21:54:06.740Z,6.57
2023-01-03T21:59:08.160Z,6.66
2023-01-03T22:04:15.460Z,6.79
2023-01-03T22:09:35.534Z,6.83
2023-01-03T22:14:36.936Z,6.85
2023-01-03T22:19:38.335Z,6.91
2023-01-03T22:24:39.741Z,7.01
2023-01-03T22:29:41.082Z,7.11
2023-01-03T22:34:42.437Z,7.23
2023-01-03T22:39:43.845Z,7.24
2023-01-03T22:44:45.270Z,7.14
2023-01-03T22:49:46.632Z,7.07
2023-01-03T22:54:47.986Z,7.00
2023-01-03T22:59:49.277Z,6.90
2023-01-03T23:04:51.613Z,6.73
2023-01-03T23:09:52.954Z,6.58
2023-01-03T23:14:54.278Z,6.41
2023-01-03T23:19:55.612Z,6.42
2023-01-03T23:24:57.997Z,6.44
2023-01-03T23:29:59.358Z,6.47
2023-01-03T23:35:00.700Z,6.48
2023-01-03T23:40:02.062Z,6.53
2023-01-03T23:45:03.895Z,6.56
2023-01-03T23:50:05.418Z,6.56
2023-01-03T23:55:12.197Z,6.55
